Time;durP1;ratioP1;P1;durP2;ratioP2;P2;SDS_P1;SDS_P2;PMS_P1;PMS_P2;Temp;Humidity;BMP_temperature;BMP_pressure;BME280_temperature;BME280_humidity;BME280_pressure;Samples;Min_cycle;Max_cycle;Signal;HPM_P1;HPM_P2
2020/12/27 10:34:24;;;;;;;1.00;0.50;;;19.60;46.10;;;;;;4915313;29;20067;-46
2020/12/27 10:36:51;;;;;;;1.17;0.40;;;19.60;46.20;;;;;;4918494;29;20443;-49
2020/12/27 10:39:17;;;;;;;0.63;0.30;;;19.70;46.20;;;;;;4918523;29;20346;-47
2020/12/27 10:41:44;;;;;;;1.20;0.43;;;19.70;46.10;;;;;;4918774;29;20111;-47
2020/12/27 10:44:10;;;;;;;0.85;0.50;;;19.80;46.10;;;;;;4918834;29;20150;-46
2020/12/27 10:46:36;;;;;;;3.97;0.47;;;19.80;46.10;;;;;;4918697;29;20463;-46
2020/12/27 10:49:02;;;;;;;0.95;0.50;;;19.80;45.70;;;;;;4921559;29;20041;-46
2020/12/27 10:51:27;;;;;;;1.70;0.47;;;19.90;45.80;;;;;;4922429;29;20036;-46
2020/12/27 10:53:53;;;;;;;0.63;0.50;;;19.90;45.80;;;;;;4922102;29;20076;-47
2020/12/27 10:56:18;;;;;;;3.40;0.40;;;19.90;45.80;;;;;;4922458;29;20044;-51
2020/12/27 10:58:44;;;;;;;1.48;0.45;;;20.00;45.80;;;;;;4922198;29;20047;-50
2020/12/27 11:01:09;;;;;;;2.47;0.50;;;20.10;45.80;;;;;;4922642;29;20051;-48
2020/12/27 11:03:35;;;;;;;0.32;0.30;;;20.20;45.70;;;;;;4922557;29;20054;-50
2020/12/27 11:06:00;;;;;;;0.88;0.55;;;20.20;45.70;;;;;;4922151;29;20111;-50
2020/12/27 11:08:26;;;;;;;0.40;0.40;;;20.30;45.60;;;;;;4921726;29;20100;-49
2020/12/27 11:10:51;;;;;;;0.52;0.30;;;20.40;45.60;;;;;;4922200;29;20048;-49
2020/12/27 11:13:17;;;;;;;0.30;0.30;;;20.40;45.50;;;;;;4922028;29;20426;-48
2020/12/27 11:15:42;;;;;;;0.90;0.50;;;20.50;45.50;;;;;;4922260;29;20036;-48
2020/12/27 11:18:08;;;;;;;1.95;0.40;;;20.40;46.00;;;;;;4921683;29;20111;-48
2020/12/27 11:20:33;;;;;;;0.40;0.40;;;20.50;45.40;;;;;;4922063;29;20039;-47
2020/12/27 11:22:59;;;;;;;1.15;0.40;;;20.60;45.50;;;;;;4921614;29;20036;-49
2020/12/27 11:25:25;;;;;;;3.50;0.40;;;20.60;45.50;;;;;;4921914;29;20036;-45
2020/12/27 11:27:52;;;;;;;0.60;0.30;;;20.60;45.50;;;;;;4922264;29;20047;-46
2020/12/27 11:30:18;;;;;;;1.30;0.40;;;20.70;45.50;;;;;;4921788;29;20039;-46
2020/12/27 11:32:43;;;;;;;0.40;0.40;;;20.70;45.50;;;;;;4921270;29;20040;-46
2020/12/27 11:35:09;;;;;;;1.52;0.30;;;20.70;45.40;;;;;;4921904;29;20077;-45
2020/12/27 11:37:35;;;;;;;0.20;0.20;;;20.80;45.40;;;;;;4921483;29;20041;-48
2020/12/27 11:40:00;;;;;;;0.45;0.30;;;20.80;45.30;;;;;;4921648;29;20367;-47
2020/12/27 11:42:27;;;;;;;2.30;0.30;;;20.80;45.20;;;;;;4921943;29;20123;-48
2020/12/27 11:44:53;;;;;;;1.27;0.55;;;20.80;45.20;;;;;;4921404;29;20044;-45
2020/12/27 11:47:18;;;;;;;0.30;0.30;;;20.80;45.20;;;;;;4921657;29;20044;-46
2020/12/27 11:49:44;;;;;;;0.40;0.30;;;20.80;45.10;;;;;;4921702;29;20051;-48
2020/12/27 11:52:09;;;;;;;3.20;0.40;;;20.90;45.20;;;;;;4921063;29;20355;-48
2020/12/27 11:54:35;;;;;;;1.92;0.30;;;20.90;45.10;;;;;;4921389;29;20358;-48
2020/12/27 11:57:01;;;;;;;0.70;0.20;;;20.80;44.20;;;;;;4921198;29;20454;-46
2020/12/27 11:59:26;;;;;;;1.65;0.30;;;20.80;44.70;;;;;;4920235;29;20047;-46
2020/12/27 12:01:52;;;;;;;0.45;0.25;;;20.80;44.90;;;;;;4921232;29;20032;-47
2020/12/27 12:04:17;;;;;;;2.13;0.40;;;20.80;45.00;;;;;;4921296;29;20073;-46
2020/12/27 12:06:46;;;;;;;3.40;0.47;;;20.80;45.10;;;;;;4921140;29;20032;-46
2020/12/27 12:09:12;;;;;;;0.70;0.30;;;20.80;45.10;;;;;;4920931;29;20443;-47
2020/12/27 12:11:39;;;;;;;0.20;0.20;;;20.70;43.40;;;;;;4920810;29;20055;-52
2020/12/27 12:14:06;;;;;;;1.75;0.30;;;20.70;44.30;;;;;;4920843;29;20060;-46
2020/12/27 12:16:32;;;;;;;1.80;0.10;;;20.70;45.00;;;;;;4921186;29;20047;-53
2020/12/27 12:18:58;;;;;;;1.15;0.30;;;20.70;45.50;;;;;;4920939;29;20032;-45
2020/12/27 12:21:25;;;;;;;0.50;0.13;;;20.70;45.50;;;;;;4920622;29;20040;-45
2020/12/27 12:23:51;;;;;;;0.20;0.10;;;20.70;45.60;;;;;;4920771;29;20036;-46
2020/12/27 12:26:28;;;;;;;0.47;0.30;;;20.70;45.60;;;;;;4920483;29;20114;-46
2020/12/27 12:28:54;;;;;;;1.48;0.20;;;20.80;45.70;;;;;;4920858;29;20041;-46
2020/12/27 12:31:20;;;;;;;2.88;0.30;;;20.80;45.70;;;;;;4921005;29;20037;-46
2020/12/27 12:33:46;;;;;;;0.40;0.28;;;20.80;45.70;;;;;;4920019;29;20074;-46
2020/12/27 12:36:16;;;;;;;1.38;0.30;;;20.80;45.60;;;;;;4920802;29;20439;-46
2020/12/27 12:38:42;;;;;;;1.25;0.30;;;20.90;45.60;;;;;;4920710;29;20104;-47
2020/12/27 12:41:11;;;;;;;2.05;0.30;;;20.90;46.20;;;;;;4920535;29;20348;-49
2020/12/27 12:43:41;;;;;;;2.83;0.43;;;20.90;44.90;;;;;;4920733;29;20075;-49
2020/12/27 12:46:08;;;;;;;1.88;0.50;;;20.90;45.30;;;;;;4920601;29;20163;-47
2020/12/27 12:48:34;;;;;;;1.52;0.30;;;20.80;45.00;;;;;;4920241;29;20032;-46
2020/12/27 12:51:00;;;;;;;1.45;0.30;;;20.80;45.30;;;;;;4920271;29;20119;-46
2020/12/27 12:53:25;;;;;;;2.03;0.40;;;20.90;45.40;;;;;;4920284;29;20120;-46
2020/12/27 12:55:51;;;;;;;0.45;0.30;;;20.90;45.40;;;;;;4920251;29;20032;-45
2020/12/27 12:58:17;;;;;;;1.33;0.20;;;20.90;45.40;;;;;;4919868;29;20419;-44
2020/12/27 13:00:42;;;;;;;2.80;0.30;;;20.90;45.40;;;;;;4920086;29;20115;-49
2020/12/27 13:03:08;;;;;;;0.50;0.30;;;21.00;45.50;;;;;;4918996;29;20077;-45
2020/12/27 13:05:33;;;;;;;9.65;0.57;;;21.00;45.50;;;;;;4919944;29;20127;-46
2020/12/27 13:07:59;;;;;;;1.73;0.20;;;21.00;45.60;;;;;;4919762;29;20098;-45
2020/12/27 13:10:25;;;;;;;0.10;0.10;;;21.10;45.70;;;;;;4919953;29;20462;-46
2020/12/27 13:12:50;;;;;;;1.88;0.20;;;21.10;45.70;;;;;;4918387;29;20052;-50
2020/12/27 13:15:16;;;;;;;0.20;0.20;;;21.20;45.80;;;;;;4919442;29;20154;-48
2020/12/27 13:17:41;;;;;;;1.00;0.22;;;21.20;45.80;;;;;;4919585;29;20040;-45
2020/12/27 13:20:10;;;;;;;0.60;0.20;;;21.20;45.70;;;;;;4920100;29;20043;-46
2020/12/27 13:22:36;;;;;;;0.77;0.20;;;21.20;45.70;;;;;;4920042;29;20039;-48
2020/12/27 13:25:05;;;;;;;2.33;0.30;;;21.20;46.30;;;;;;4919821;29;20032;-48
2020/12/27 13:27:31;;;;;;;1.83;0.20;;;21.20;45.70;;;;;;4919266;29;20028;-47
2020/12/27 13:29:57;;;;;;;0.38;0.20;;;21.20;45.80;;;;;;4918313;29;20433;-47
2020/12/27 13:32:22;;;;;;;3.20;0.20;;;21.20;45.80;;;;;;4919138;29;20363;-48
2020/12/27 13:34:48;;;;;;;0.85;0.20;;;21.20;45.80;;;;;;4919486;29;20048;-49
2020/12/27 13:37:14;;;;;;;0.70;0.20;;;21.30;45.90;;;;;;4918847;29;20396;-48
2020/12/27 13:39:41;;;;;;;0.85;0.10;;;21.30;45.90;;;;;;4919015;29;20036;-47
2020/12/27 13:42:07;;;;;;;0.55;0.17;;;21.30;45.90;;;;;;4918560;29;20071;-47
2020/12/27 13:44:32;;;;;;;0.30;0.10;;;21.40;45.90;;;;;;4919061;29;20072;-46
2020/12/27 13:46:58;;;;;;;0.80;0.20;;;21.40;45.90;;;;;;4919391;29;20047;-49
2020/12/27 13:49:25;;;;;;;2.72;0.30;;;21.40;45.80;;;;;;4918955;29;20032;-46
2020/12/27 13:51:55;;;;;;;2.72;0.35;;;21.40;45.70;;;;;;4919670;29;20047;-46
2020/12/27 13:54:20;;;;;;;3.65;0.40;;;21.40;44.30;;;;;;4919498;29;20084;-46
2020/12/27 13:56:46;;;;;;;1.75;0.20;;;21.40;44.80;;;;;;4918598;29;20059;-44
2020/12/27 13:59:11;;;;;;;1.05;0.30;;;21.40;45.00;;;;;;4919011;29;20040;-45
2020/12/27 14:01:37;;;;;;;0.95;0.20;;;21.40;45.10;;;;;;4919333;29;20029;-45
2020/12/27 14:04:04;;;;;;;0.47;0.20;;;21.40;45.10;;;;;;4918882;29;20032;-46
2020/12/27 14:06:32;;;;;;;0.85;0.15;;;21.40;45.00;;;;;;4919313;29;20072;-45
2020/12/27 14:08:57;;;;;;;0.30;0.10;;;21.40;45.00;;;;;;4919005;29;20067;-51
2020/12/27 14:11:24;;;;;;;0.13;0.13;;;21.50;45.00;;;;;;4918617;29;20123;-50
2020/12/27 14:13:50;;;;;;;0.15;0.13;;;21.50;44.80;;;;;;4919081;29;20054;-49
2020/12/27 14:16:16;;;;;;;2.33;0.15;;;21.60;44.80;;;;;;4918649;29;20035;-47
2020/12/27 14:18:42;;;;;;;1.10;0.30;;;21.60;44.80;;;;;;4918964;29;20427;-51
2020/12/27 14:21:14;;;;;;;0.10;0.10;;;21.60;44.70;;;;;;4918865;29;20032;-47
2020/12/27 14:23:39;;;;;;;1.13;0.20;;;21.60;44.60;;;;;;4918553;29;20044;-50
2020/12/27 14:26:05;;;;;;;1.95;0.35;;;21.70;44.50;;;;;;4918111;29;20343;-49
2020/12/27 14:28:30;;;;;;;0.22;0.20;;;21.70;44.70;;;;;;4919034;29;20039;-45
2020/12/27 14:30:55;;;;;;;1.27;0.10;;;21.70;44.60;;;;;;4918867;29;20481;-44
2020/12/27 14:33:21;;;;;;;0.25;0.20;;;21.70;44.60;;;;;;4919221;29;20047;-44
2020/12/27 14:35:46;;;;;;;1.83;0.20;;;21.80;44.60;;;;;;4918318;29;20087;-43
2020/12/27 14:38:12;;;;;;;4.15;0.10;;;21.70;44.40;;;;;;4918544;29;20048;-43
2020/12/27 14:40:37;;;;;;;2.08;0.28;;;21.80;44.40;;;;;;4918893;29;20036;-44
2020/12/27 14:43:03;;;;;;;0.10;0.10;;;21.80;44.40;;;;;;4918617;29;20032;-42
2020/12/27 14:45:28;;;;;;;0.45;0.15;;;21.80;44.50;;;;;;4918496;29;20045;-44
2020/12/27 14:47:54;;;;;;;0.65;0.10;;;21.80;45.10;;;;;;4918701;29;20040;-47
2020/12/27 14:50:19;;;;;;;1.40;0.20;;;21.80;44.40;;;;;;4917967;29;20032;-45
2020/12/27 14:52:48;;;;;;;0.20;0.20;;;21.80;44.40;;;;;;4918654;29;20047;-48
2020/12/27 14:55:17;;;;;;;0.63;0.20;;;21.70;44.40;;;;;;4918507;29;20036;-44
2020/12/27 14:57:47;;;;;;;0.63;0.20;;;21.70;44.40;;;;;;4918387;29;20056;-45
2020/12/27 15:00:16;;;;;;;0.68;0.28;;;21.70;44.50;;;;;;4918519;29;20050;-45
2020/12/27 15:02:41;;;;;;;0.47;0.10;;;21.70;44.50;;;;;;4918492;29;20131;-45
2020/12/27 15:05:08;;;;;;;0.52;0.13;;;21.70;44.70;;;;;;4918385;29;20218;-46
2020/12/27 15:07:34;;;;;;;0.90;0.20;;;21.70;44.70;;;;;;4918666;29;20449;-43
2020/12/27 15:09:59;;;;;;;0.30;0.25;;;21.70;44.70;;;;;;4917939;29;20107;-47
2020/12/27 15:12:25;;;;;;;0.15;0.15;;;21.70;44.80;;;;;;4918566;29;20036;-44
2020/12/27 15:14:50;;;;;;;4.22;0.20;;;21.70;44.80;;;;;;4918396;29;20041;-46
2020/12/27 15:17:16;;;;;;;0.60;0.15;;;21.70;44.80;;;;;;4918172;29;20103;-44
2020/12/27 15:19:41;;;;;;;0.05;0.05;;;21.70;44.90;;;;;;4917397;29;20028;-44
2020/12/27 15:22:07;;;;;;;0.13;0.13;;;21.70;44.90;;;;;;4917991;29;20092;-44
2020/12/27 15:24:32;;;;;;;0.40;0.13;;;21.70;44.90;;;;;;4917683;29;20351;-45
2020/12/27 15:26:58;;;;;;;0.80;0.20;;;21.80;45.00;;;;;;4918102;29;20075;-44
2020/12/27 15:29:23;;;;;;;0.43;0.20;;;21.70;45.00;;;;;;4918146;29;20115;-43
2020/12/27 15:31:49;;;;;;;0.32;0.20;;;21.70;45.00;;;;;;4918573;29;20443;-45
2020/12/27 15:34:15;;;;;;;0.22;0.10;;;21.70;45.10;;;;;;4918526;29;20044;-44
2020/12/27 15:36:47;;;;;;;0.90;0.20;;;21.70;45.80;;;;;;4922166;29;20357;-45
2020/12/27 15:39:13;;;;;;;1.88;0.20;;;21.70;44.80;;;;;;4921528;29;20036;-43
2020/12/27 15:41:39;;;;;;;0.75;0.20;;;21.70;44.90;;;;;;4921691;29;20380;-44
2020/12/27 15:44:05;;;;;;;0.50;0.30;;;21.70;45.00;;;;;;4921529;29;20055;-44
2020/12/27 15:46:31;;;;;;;2.42;0.32;;;21.70;45.20;;;;;;4921532;29;20119;-44
2020/12/27 15:48:57;;;;;;;0.93;0.25;;;21.70;45.20;;;;;;4921186;29;20423;-46
2020/12/27 15:51:22;;;;;;;0.52;0.10;;;21.80;45.30;;;;;;4921427;29;20111;-44
2020/12/27 15:53:51;;;;;;;5.28;0.25;;;21.80;45.30;;;;;;4921197;29;20056;-43
2020/12/27 15:56:21;;;;;;;4.82;0.20;;;21.80;45.30;;;;;;4921847;29;20447;-43
2020/12/27 15:58:47;;;;;;;5.95;0.30;;;21.80;45.20;;;;;;4921496;29;20046;-44
2020/12/27 16:01:13;;;;;;;2.47;0.30;;;21.80;44.80;;;;;;4921228;29;20099;-46
2020/12/27 16:03:38;;;;;;;1.65;0.30;;;21.80;44.50;;;;;;4921138;29;20050;-44
2020/12/27 16:06:03;;;;;;;1.80;0.35;;;21.70;44.30;;;;;;4920960;29;20040;-42
2020/12/27 16:08:29;;;;;;;1.02;0.50;;;21.70;44.30;;;;;;4920959;29;20032;-44
2020/12/27 16:10:54;;;;;;;1.35;0.40;;;21.70;44.10;;;;;;4920485;29;20336;-44
2020/12/27 16:13:20;;;;;;;2.25;0.43;;;21.60;44.00;;;;;;4920635;29;20115;-43
2020/12/27 16:15:46;;;;;;;1.60;0.55;;;21.60;44.10;;;;;;4920952;29;20040;-44
2020/12/27 16:18:11;;;;;;;4.65;0.60;;;21.60;44.10;;;;;;4921107;29;20043;-44
2020/12/27 16:20:37;;;;;;;0.63;0.40;;;21.60;44.10;;;;;;4920839;29;20115;-44
2020/12/27 16:23:02;;;;;;;1.35;0.70;;;21.60;44.10;;;;;;4920881;29;20036;-43
2020/12/27 16:25:28;;;;;;;7.00;0.77;;;21.50;44.10;;;;;;4920924;29;20040;-47
2020/12/27 16:27:53;;;;;;;1.48;0.65;;;21.50;44.00;;;;;;4920599;29;20043;-45
2020/12/27 16:30:20;;;;;;;3.47;0.63;;;21.50;44.60;;;;;;4920675;29;20047;-46
2020/12/27 16:32:46;;;;;;;3.60;0.65;;;21.50;44.80;;;;;;4920604;29;20482;-44
2020/12/27 16:35:12;;;;;;;1.67;0.50;;;21.60;45.10;;;;;;4920471;29;20096;-46
2020/12/27 16:37:38;;;;;;;1.02;0.50;;;21.60;45.30;;;;;;4920596;29;20087;-44
2020/12/27 16:40:03;;;;;;;1.35;0.68;;;21.70;45.40;;;;;;4920122;29;20040;-44
2020/12/27 16:42:32;;;;;;;0.50;0.40;;;21.70;45.40;;;;;;4920579;29;20127;-44
2020/12/27 16:44:58;;;;;;;0.38;0.38;;;21.70;45.40;;;;;;4920389;29;20031;-46
2020/12/27 16:47:23;;;;;;;0.35;0.35;;;21.70;45.40;;;;;;4918808;29;20411;-45
2020/12/27 16:49:49;;;;;;;0.57;0.47;;;21.70;45.30;;;;;;4920150;29;20459;-48
2020/12/27 16:52:14;;;;;;;0.68;0.40;;;21.80;45.40;;;;;;4920088;29;20123;-43
2020/12/27 16:54:40;;;;;;;0.68;0.30;;;21.80;45.30;;;;;;4920271;29;20440;-45
2020/12/27 16:57:05;;;;;;;0.60;0.50;;;21.80;45.40;;;;;;4920246;29;20040;-45
2020/12/27 16:59:31;;;;;;;0.50;0.40;;;21.80;45.40;;;;;;4920358;29;20039;-47
2020/12/27 17:01:56;;;;;;;1.52;0.70;;;21.80;45.40;;;;;;4920241;29;20040;-44
2020/12/27 17:04:21;;;;;;;0.47;0.35;;;21.80;45.50;;;;;;4919621;29;20359;-47
2020/12/27 17:06:51;;;;;;;0.95;0.43;;;21.80;45.50;;;;;;4920063;29;20066;-44
2020/12/27 17:09:17;;;;;;;1.75;0.50;;;21.80;45.50;;;;;;4919573;29;20051;-47
2020/12/27 17:11:42;;;;;;;0.40;0.40;;;21.90;45.60;;;;;;4919850;29;20036;-48
2020/12/27 17:14:08;;;;;;;2.42;0.60;;;21.90;45.70;;;;;;4920180;29;20048;-48
2020/12/27 17:16:36;;;;;;;1.08;0.30;;;21.90;45.70;;;;;;4919897;29;20043;-48
2020/12/27 17:19:02;;;;;;;1.00;0.32;;;21.90;45.70;;;;;;4920351;29;20131;-44
2020/12/27 17:21:28;;;;;;;2.95;0.43;;;21.90;45.70;;;;;;4919790;29;20042;-51
2020/12/27 17:23:54;;;;;;;0.70;0.52;;;22.00;45.70;;;;;;4920026;29;20040;-48
2020/12/27 17:26:19;;;;;;;4.25;0.60;;;22.00;45.70;;;;;;4919724;29;20036;-48
2020/12/27 17:28:44;;;;;;;0.50;0.40;;;22.10;45.70;;;;;;4919854;29;20040;-45
2020/12/27 17:31:10;;;;;;;1.40;0.55;;;22.10;45.60;;;;;;4919420;29;20091;-45
2020/12/27 17:33:35;;;;;;;3.72;0.60;;;22.20;45.60;;;;;;4919557;29;20119;-50
2020/12/27 17:36:01;;;;;;;2.25;0.30;;;22.20;45.60;;;;;;4919304;29;20055;-45
2020/12/27 17:38:27;;;;;;;1.70;0.75;;;22.20;46.20;;;;;;4919539;29;20044;-46
2020/12/27 17:40:52;;;;;;;1.52;0.40;;;22.20;45.50;;;;;;4919482;29;20036;-44
2020/12/27 17:43:18;;;;;;;1.77;0.40;;;22.20;45.50;;;;;;4919473;29;20434;-46
2020/12/27 17:45:43;;;;;;;1.27;0.50;;;22.30;45.50;;;;;;4919416;29;20029;-45
2020/12/27 17:48:09;;;;;;;1.38;0.40;;;22.30;45.50;;;;;;4919126;29;20367;-44
2020/12/27 17:50:34;;;;;;;0.40;0.28;;;22.30;45.50;;;;;;4919324;29;20032;-50
2020/12/27 17:53:00;;;;;;;0.82;0.20;;;22.30;45.50;;;;;;4919361;29;20032;-47
2020/12/27 17:55:25;;;;;;;1.70;0.40;;;22.20;45.40;;;;;;4919085;29;20041;-44
2020/12/27 17:57:50;;;;;;;3.10;0.30;;;22.30;45.50;;;;;;4917881;29;20047;-44
2020/12/27 18:00:16;;;;;;;2.38;0.30;;;22.20;45.50;;;;;;4919455;29;20036;-47
2020/12/27 18:02:42;;;;;;;3.33;0.38;;;22.20;45.50;;;;;;4918918;29;20040;-45
2020/12/27 18:05:07;;;;;;;2.05;0.20;;;22.20;45.50;;;;;;4919297;29;20040;-48
2020/12/27 18:07:33;;;;;;;0.35;0.20;;;22.20;45.60;;;;;;4918804;29;20333;-44
2020/12/27 18:09:58;;;;;;;0.22;0.22;;;22.20;45.70;;;;;;4918021;29;20473;-45
2020/12/27 18:12:24;;;;;;;1.15;0.35;;;22.20;45.60;;;;;;4918690;29;20119;-45
2020/12/27 18:14:49;;;;;;;0.45;0.20;;;22.20;45.60;;;;;;4918906;29;20063;-44
2020/12/27 18:17:16;;;;;;;0.32;0.25;;;22.20;45.60;;;;;;4918921;29;20040;-44
2020/12/27 18:19:44;;;;;;;1.08;0.30;;;22.20;45.60;;;;;;4917850;29;20340;-43
2020/12/27 18:22:10;;;;;;;0.65;0.40;;;22.20;45.50;;;;;;4919140;29;20123;-44
2020/12/27 18:24:37;;;;;;;0.70;0.47;;;22.20;45.50;;;;;;4918926;29;20083;-44
2020/12/27 18:27:04;;;;;;;0.20;0.20;;;22.20;45.50;;;;;;4918634;29;20127;-50
2020/12/27 18:29:30;;;;;;;1.05;0.30;;;22.20;45.50;;;;;;4918816;29;20468;-47
2020/12/27 18:31:56;;;;;;;0.68;0.20;;;22.20;45.50;;;;;;4918757;29;20135;-46
2020/12/27 18:34:21;;;;;;;0.20;0.17;;;22.10;45.40;;;;;;4918601;29;20374;-47
2020/12/27 18:36:47;;;;;;;1.23;0.28;;;22.10;45.40;;;;;;4919171;29;20048;-47
2020/12/27 18:39:12;;;;;;;0.43;0.30;;;22.10;45.40;;;;;;4918730;29;20028;-48
2020/12/27 18:41:38;;;;;;;0.22;0.20;;;22.10;46.00;;;;;;4918682;29;20461;-45
2020/12/27 18:44:03;;;;;;;0.32;0.30;;;22.10;45.30;;;;;;4918658;29;20051;-46
2020/12/27 18:46:29;;;;;;;0.40;0.30;;;22.00;44.90;;;;;;4918675;29;20032;-45
2020/12/27 18:48:56;;;;;;;1.83;0.43;;;22.00;44.60;;;;;;4918098;29;20036;-45
2020/12/27 18:51:21;;;;;;;0.45;0.30;;;22.00;44.70;;;;;;4918442;29;20345;-44
2020/12/27 18:53:47;;;;;;;0.32;0.25;;;21.90;44.80;;;;;;4917982;29;20050;-46
2020/12/27 18:56:18;;;;;;;0.30;0.20;;;21.90;44.90;;;;;;4918488;29;20036;-44
2020/12/27 18:58:44;;;;;;;0.10;0.10;;;21.90;45.00;;;;;;4918509;29;20071;-44
2020/12/27 19:01:11;;;;;;;0.45;0.30;;;21.90;45.00;;;;;;4918444;29;20079;-45
2020/12/27 19:03:38;;;;;;;0.20;0.20;;;21.90;45.70;;;;;;4918647;29;20459;-45
2020/12/27 19:06:04;;;;;;;0.85;0.20;;;21.90;45.10;;;;;;4918722;29;20036;-45
2020/12/27 19:08:30;;;;;;;0.65;0.25;;;21.80;45.10;;;;;;4918561;29;20045;-44
2020/12/27 19:10:57;;;;;;;1.27;0.30;;;21.80;45.10;;;;;;4922446;29;20039;-45
2020/12/27 19:13:23;;;;;;;0.65;0.30;;;21.80;45.10;;;;;;4921812;29;20048;-44
2020/12/27 19:15:48;;;;;;;0.63;0.20;;;21.80;45.10;;;;;;4922085;29;20087;-44
2020/12/27 19:18:14;;;;;;;3.22;0.20;;;21.80;45.20;;;;;;4922215;29;20119;-48
2020/12/27 19:20:39;;;;;;;0.73;0.40;;;21.80;45.20;;;;;;4922030;29;20037;-45
2020/12/27 19:23:05;;;;;;;1.45;0.20;;;21.80;45.30;;;;;;4921694;29;20123;-44
2020/12/27 19:25:30;;;;;;;0.20;0.10;;;21.80;45.30;;;;;;4921674;29;20107;-45
2020/12/27 19:27:56;;;;;;;0.20;0.20;;;21.80;45.30;;;;;;4922131;29;20043;-44
2020/12/27 19:30:21;;;;;;;1.13;0.40;;;21.80;45.30;;;;;;4921847;29;20036;-45
2020/12/27 19:32:47;;;;;;;0.15;0.15;;;21.80;45.30;;;;;;4920174;29;20076;-45
2020/12/27 19:35:12;;;;;;;0.30;0.20;;;21.80;45.30;;;;;;4920742;29;20040;-45
2020/12/27 19:37:38;;;;;;;0.32;0.25;;;21.80;45.30;;;;;;4921602;29;20044;-49
2020/12/27 19:40:04;;;;;;;0.85;0.20;;;21.80;45.30;;;;;;4921647;29;20111;-50
2020/12/27 19:42:29;;;;;;;0.20;0.20;;;21.80;45.30;;;;;;4921965;29;20043;-45
2020/12/27 19:44:55;;;;;;;0.30;0.20;;;21.80;45.30;;;;;;4921677;29;20040;-44
2020/12/27 19:47:20;;;;;;;0.20;0.20;;;21.70;45.30;;;;;;4921071;29;20062;-44
2020/12/27 19:49:47;;;;;;;0.60;0.40;;;21.80;45.30;;;;;;4921523;29;20044;-45
2020/12/27 19:52:13;;;;;;;0.90;0.20;;;21.70;45.30;;;;;;4921538;29;20450;-48
2020/12/27 19:54:39;;;;;;;0.20;0.20;;;21.70;45.30;;;;;;4921253;29;20366;-48
2020/12/27 19:57:05;;;;;;;0.20;0.20;;;21.70;45.30;;;;;;4921155;29;20051;-47
2020/12/27 19:59:30;;;;;;;0.30;0.25;;;21.80;45.40;;;;;;4921314;29;20123;-44
2020/12/27 20:01:57;;;;;;;0.22;0.22;;;21.80;45.40;;;;;;4921274;29;20043;-44
2020/12/27 20:04:24;;;;;;;2.72;0.30;;;21.70;45.30;;;;;;4921495;29;20159;-48
2020/12/27 20:06:50;;;;;;;0.55;0.20;;;21.80;45.40;;;;;;4921151;29;20040;-46
2020/12/27 20:09:16;;;;;;;0.30;0.20;;;21.70;45.40;;;;;;4920935;29;20451;-45
2020/12/27 20:11:42;;;;;;;0.40;0.35;;;21.70;45.40;;;;;;4921085;29;20115;-44
2020/12/27 20:14:07;;;;;;;0.20;0.20;;;21.80;45.50;;;;;;4921041;29;20183;-46
2020/12/27 20:16:33;;;;;;;0.20;0.20;;;21.70;45.40;;;;;;4904461;29;20028;-44
2020/12/27 20:18:58;;;;;;;0.28;0.10;;;21.70;45.40;;;;;;4920820;29;20031;-44
2020/12/27 20:21:24;;;;;;;1.77;0.20;;;21.70;45.40;;;;;;4920158;29;20036;-45
2020/12/27 20:23:49;;;;;;;0.10;0.10;;;21.80;45.50;;;;;;4920857;29;20036;-45
2020/12/27 20:26:15;;;;;;;0.35;0.32;;;21.80;45.50;;;;;;4920938;29;20055;-44
2020/12/27 20:28:42;;;;;;;0.88;0.25;;;21.80;45.50;;;;;;4920146;29;20044;-44
2020/12/27 20:31:10;;;;;;;0.85;0.30;;;21.80;45.50;;;;;;4921107;29;20039;-46
2020/12/27 20:33:36;;;;;;;0.30;0.30;;;21.90;45.60;;;;;;4920688;29;20048;-45
2020/12/27 20:36:06;;;;;;;0.15;0.15;;;21.90;45.60;;;;;;4920500;29;20055;-44
2020/12/27 20:38:32;;;;;;;0.43;0.20;;;21.90;45.50;;;;;;4920732;29;20042;-44
2020/12/27 20:40:57;;;;;;;0.82;0.30;;;21.90;45.40;;;;;;4920383;29;20036;-49
2020/12/27 20:43:22;;;;;;;0.30;0.30;;;21.90;45.40;;;;;;4921063;29;20040;-45
2020/12/27 20:45:48;;;;;;;2.17;0.30;;;21.90;45.40;;;;;;4920531;29;20036;-45
2020/12/27 20:48:13;;;;;;;0.10;0.10;;;21.90;45.40;;;;;;4920746;29;20118;-47
2020/12/27 20:50:39;;;;;;;0.25;0.20;;;21.90;45.40;;;;;;4920466;29;20040;-50
2020/12/27 20:53:04;;;;;;;0.47;0.30;;;21.90;45.40;;;;;;4920330;29;20047;-48
2020/12/27 20:55:30;;;;;;;1.65;0.28;;;21.90;45.40;;;;;;4920380;29;20037;-50
2020/12/27 20:57:55;;;;;;;1.70;0.40;;;21.90;45.50;;;;;;4920781;29;20128;-45
2020/12/27 21:00:21;;;;;;;0.63;0.30;;;22.00;45.70;;;;;;4919891;29;20040;-45
2020/12/27 21:02:46;;;;;;;0.22;0.20;;;21.90;45.70;;;;;;4920221;29;20531;-46
2020/12/27 21:05:12;;;;;;;0.35;0.30;;;21.90;45.80;;;;;;4920065;29;20044;-45
2020/12/27 21:07:37;;;;;;;0.68;0.30;;;21.90;45.80;;;;;;4920109;29;20359;-47
2020/12/27 21:10:03;;;;;;;0.47;0.28;;;21.90;45.90;;;;;;4920452;29;20459;-49
2020/12/27 21:12:29;;;;;;;0.93;0.15;;;21.90;46.00;;;;;;4920110;29;20036;-45
2020/12/27 21:14:54;;;;;;;0.30;0.30;;;21.90;45.90;;;;;;4920111;29;20439;-45
2020/12/27 21:17:19;;;;;;;0.77;0.30;;;21.90;46.00;;;;;;4920039;29;20103;-46
2020/12/27 21:19:45;;;;;;;2.28;0.32;;;21.90;46.00;;;;;;4919379;29;20064;-45
2020/12/27 21:22:11;;;;;;;3.72;0.55;;;21.80;45.90;;;;;;4920150;29;20034;-44
2020/12/27 21:24:36;;;;;;;0.93;0.30;;;21.90;46.00;;;;;;4919868;29;20063;-45
2020/12/27 21:27:02;;;;;;;0.30;0.30;;;21.90;46.00;;;;;;4919833;29;20040;-45
2020/12/27 21:29:27;;;;;;;0.40;0.30;;;21.80;45.90;;;;;;4918194;29;20044;-45
2020/12/27 21:31:54;;;;;;;0.28;0.15;;;21.80;46.00;;;;;;4919679;29;20103;-43
2020/12/27 21:34:20;;;;;;;0.20;0.20;;;21.80;46.00;;;;;;4919235;29;20052;-50
2020/12/27 21:36:46;;;;;;;2.10;0.40;;;21.80;46.00;;;;;;4919331;29;20183;-43
2020/12/27 21:39:11;;;;;;;0.35;0.30;;;21.80;46.00;;;;;;4919690;29;20459;-44
2020/12/27 21:41:38;;;;;;;0.50;0.20;;;21.80;46.10;;;;;;4919157;29;20107;-44
2020/12/27 21:44:04;;;;;;;0.82;0.22;;;21.70;46.00;;;;;;4919189;29;20047;-48
2020/12/27 21:46:30;;;;;;;1.48;0.47;;;21.70;46.10;;;;;;4919482;29;20176;-45
2020/12/27 21:48:55;;;;;;;0.20;0.20;;;21.70;46.10;;;;;;4919779;29;20522;-47
2020/12/27 21:51:21;;;;;;;1.63;0.22;;;21.70;46.10;;;;;;4919016;29;20040;-48
2020/12/27 21:53:46;;;;;;;0.68;0.40;;;21.70;46.10;;;;;;4919015;29;20048;-49
2020/12/27 21:56:12;;;;;;;0.52;0.30;;;21.60;46.10;;;;;;4919375;29;20036;-49
2020/12/27 21:58:37;;;;;;;1.85;0.38;;;21.60;46.10;;;;;;4918856;29;20107;-48
2020/12/27 22:01:03;;;;;;;2.60;0.30;;;21.60;46.10;;;;;;4919284;29;20040;-48
2020/12/27 22:03:28;;;;;;;1.48;0.63;;;21.60;46.10;;;;;;4919230;29;20399;-44
2020/12/27 22:05:54;;;;;;;1.80;0.15;;;21.60;46.20;;;;;;4919178;29;20028;-45
2020/12/27 22:08:19;;;;;;;0.20;0.17;;;21.60;46.20;;;;;;4918952;29;20367;-48
2020/12/27 22:10:45;;;;;;;0.20;0.20;;;21.60;46.30;;;;;;4919066;29;20126;-47
2020/12/27 22:13:10;;;;;;;1.75;0.20;;;21.50;46.20;;;;;;4918805;29;20167;-47
2020/12/27 22:15:36;;;;;;;0.70;0.30;;;21.50;46.30;;;;;;4919063;29;20366;-45
2020/12/27 22:18:02;;;;;;;0.10;0.10;;;21.50;46.30;;;;;;4918966;29;20036;-45
2020/12/27 22:20:27;;;;;;;0.20;0.20;;;21.50;46.30;;;;;;4918651;29;20040;-45
2020/12/27 22:22:53;;;;;;;0.65;0.20;;;21.50;46.30;;;;;;4919017;29;20119;-46
2020/12/27 22:25:18;;;;;;;0.40;0.20;;;21.40;46.30;;;;;;4918959;29;20036;-45
2020/12/27 22:27:44;;;;;;;0.63;0.28;;;21.40;46.30;;;;;;4918566;29;20039;-45
2020/12/27 22:30:09;;;;;;;0.43;0.25;;;21.40;46.30;;;;;;4918769;29;20115;-45
2020/12/27 22:32:35;;;;;;;0.30;0.30;;;21.40;46.40;;;;;;4918658;29;20162;-46
2020/12/27 22:35:00;;;;;;;0.30;0.25;;;21.40;46.40;;;;;;4918949;29;20099;-45
2020/12/27 22:37:26;;;;;;;0.50;0.25;;;21.40;46.40;;;;;;4918802;29;20164;-45
2020/12/27 22:39:52;;;;;;;2.88;0.47;;;21.30;46.40;;;;;;4918618;29;20044;-45
2020/12/27 22:42:17;;;;;;;0.25;0.25;;;21.30;46.40;;;;;;4918639;29;20092;-51
2020/12/27 22:44:42;;;;;;;0.28;0.20;;;21.30;46.40;;;;;;4918745;29;20032;-44
2020/12/27 22:47:14;;;;;;;0.30;0.20;;;21.30;46.40;;;;;;4918526;29;20047;-44
2020/12/27 22:49:40;;;;;;;0.65;0.13;;;21.20;46.40;;;;;;4918641;29;20100;-45
2020/12/27 22:52:05;;;;;;;0.17;0.17;;;21.20;46.40;;;;;;4918703;29;20032;-44
2020/12/27 22:54:31;;;;;;;0.45;0.30;;;21.20;46.50;;;;;;4918262;29;20044;-44
2020/12/27 22:56:56;;;;;;;0.95;0.30;;;21.20;46.50;;;;;;4918255;29;20042;-45
2020/12/27 22:59:22;;;;;;;0.65;0.20;;;21.20;46.50;;;;;;4918461;29;20103;-44
2020/12/27 23:01:48;;;;;;;0.43;0.20;;;21.20;46.50;;;;;;4918657;29;20466;-44
2020/12/27 23:04:14;;;;;;;0.30;0.20;;;21.20;46.50;;;;;;4918600;29;20036;-46
2020/12/27 23:06:40;;;;;;;0.20;0.20;;;21.20;46.50;;;;;;4918558;29;20502;-44
2020/12/27 23:09:10;;;;;;;0.63;0.30;;;21.10;47.10;;;;;;4918413;29;20036;-47
2020/12/27 23:11:37;;;;;;;0.45;0.30;;;21.10;46.50;;;;;;4918088;29;20036;-44
2020/12/27 23:14:03;;;;;;;0.28;0.20;;;21.10;46.50;;;;;;4918148;29;20472;-45